Time;durP1;ratioP1;P1;durP2;ratioP2;P2;SDS_P1;SDS_P2;PMS_P1;PMS_P2;Temp;Humidity;BMP_temperature;BMP_pressure;BME280_temperature;BME280_humidity;BME280_pressure;Samples;Min_cycle;Max_cycle;Signal;HPM_P1;HPM_P2
2022/01/02 00:01:20;;;;;;;44.28;16.90;;;;;;;4.39;100.00;99547.19;4372933;32;20028;-74
2022/01/02 00:03:52;;;;;;;49.72;17.10;;;;;;;4.44;100.00;99571.47;4372814;32;20395;-74
2022/01/02 00:06:23;;;;;;;37.22;14.77;;;;;;;4.49;100.00;99569.03;4372610;32;20341;-73
2022/01/02 00:09:01;;;;;;;39.33;14.40;;;;;;;4.44;100.00;99577.59;4359183;32;20043;-73
2022/01/02 00:11:27;;;;;;;33.90;15.40;;;;;;;4.49;100.00;99579.69;4371913;32;20061;-74
2022/01/02 00:14:00;;;;;;;37.10;15.45;;;;;;;4.45;100.00;99578.41;4371355;32;20125;-75
2022/01/02 00:16:27;;;;;;;42.38;14.85;;;;;;;4.48;100.00;99572.69;4372679;32;20051;-74
2022/01/02 00:19:06;;;;;;;31.85;15.27;;;;;;;4.18;100.00;99535.63;4372921;32;20061;-74
2022/01/02 00:21:35;;;;;;;42.30;16.87;;;;;;;4.46;100.00;99574.75;4372862;32;20039;-74
2022/01/02 00:24:05;;;;;;;36.75;13.93;;;;;;;4.44;100.00;99574.13;4370502;32;20027;-75
2022/01/02 00:26:43;;;;;;;43.13;15.90;;;;;;;4.44;100.00;99571.47;4371198;32;20054;-73
2022/01/02 00:29:11;;;;;;;32.72;13.88;;;;;;;4.44;100.00;99574.13;4359997;32;20044;-74
2022/01/02 00:31:39;;;;;;;33.72;15.23;;;;;;;4.46;100.00;99580.06;4370301;32;20031;-75
2022/01/02 00:34:06;;;;;;;36.15;16.12;;;;;;;4.15;100.00;99538.69;4357821;32;20131;-75
2022/01/02 00:36:33;;;;;;;42.65;15.13;;;;;;;4.21;100.00;99535.19;4371538;32;20044;-74
2022/01/02 00:39:01;;;;;;;35.60;15.00;;;;;;;4.18;100.00;99535.63;4372712;32;20380;-74
2022/01/02 00:41:38;;;;;;;54.97;16.27;;;;;;;4.45;100.00;99565.09;4372481;32;20070;-74
2022/01/02 00:44:12;;;;;;;31.30;13.73;;;;;;;4.45;100.00;99570.41;4371022;32;20047;-74
2022/01/02 00:46:50;;;;;;;31.42;14.23;;;;;;;4.42;100.00;99552.16;4372454;32;20061;-74
2022/01/02 00:49:24;;;;;;;32.95;14.57;;;;;;;4.39;100.00;99547.19;4371425;32;20069;-75
2022/01/02 00:51:58;;;;;;;38.55;15.13;;;;;;;4.19;100.00;99511.41;4372468;32;20048;-74
2022/01/02 00:54:28;;;;;;;34.65;14.27;;;;;;;4.23;100.00;99527.84;4369891;32;20065;-74
2022/01/02 00:57:05;;;;;;;33.17;13.95;;;;;;;4.44;100.00;99550.94;4357695;32;20059;-73
2022/01/02 00:59:44;;;;;;;34.95;14.57;;;;;;;4.44;100.00;99558.13;4370195;32;20137;-74
2022/01/02 01:02:16;;;;;;;36.58;14.52;;;;;;;4.42;100.00;99552.16;4370352;32;20381;-75
2022/01/02 01:04:44;;;;;;;35.90;14.57;;;;;;;4.45;100.00;99549.94;4350962;32;20082;-74
2022/01/02 01:07:10;;;;;;;35.95;13.77;;;;;;;4.19;100.00;99515.94;4329390;32;20048;-73
2022/01/02 01:09:37;;;;;;;29.42;12.73;;;;;;;4.40;100.00;99543.53;4357004;32;20097;-74
2022/01/02 01:12:04;;;;;;;31.25;13.48;;;;;;;4.35;100.00;99528.94;4356490;32;20385;-74
2022/01/02 01:14:31;;;;;;;30.65;12.80;;;;;;;4.39;100.00;99540.03;4356433;32;20040;-74
2022/01/02 01:16:58;;;;;;;29.85;12.77;;;;;;;4.41;100.00;99537.19;4357142;32;20036;-74
2022/01/02 01:19:25;;;;;;;31.60;13.07;;;;;;;4.15;100.00;99493.38;4341203;33;20055;-75
2022/01/02 01:21:52;;;;;;;23.08;11.80;;;;;;;4.39;100.00;99528.53;4365313;32;20073;-74
2022/01/02 01:24:19;;;;;;;25.55;12.95;;;;;;;4.44;100.00;99518.13;4370452;32;20440;-74
2022/01/02 01:26:49;;;;;;;23.80;12.60;;;;;;;4.16;100.00;99479.00;4371987;32;20057;-74
2022/01/02 01:29:16;;;;;;;30.60;12.02;;;;;;;4.37;100.00;99518.91;4369996;32;20031;-75
2022/01/02 01:31:44;;;;;;;26.33;11.30;;;;;;;4.09;100.00;99454.19;4355846;32;20027;-74
2022/01/02 01:34:11;;;;;;;27.98;12.15;;;;;;;4.28;100.00;99490.75;4371722;32;20067;-74
2022/01/02 01:36:38;;;;;;;29.33;13.23;;;;;;;4.17;100.00;99459.34;4371856;32;20098;-73
2022/01/02 01:39:05;;;;;;;28.35;12.77;;;;;;;4.40;100.00;99484.88;4371831;32;20076;-74
2022/01/02 01:41:36;;;;;;;21.15;10.65;;;;;;;4.41;100.00;99474.00;4371013;32;20058;-74
2022/01/02 01:46:37;;;;;;;22.42;12.18;;;;;;;4.22;100.00;99438.25;4370934;32;20592;-74
2022/01/02 01:49:15;;;;;;;23.27;11.32;;;;;;;4.16;100.00;99421.22;4371323;32;20349;-75
2022/01/02 01:51:44;;;;;;;22.27;10.38;;;;;;;4.55;100.00;99474.91;4368784;32;20057;-76
2022/01/02 01:54:11;;;;;;;21.70;11.43;;;;;;;4.51;100.00;99473.63;4362333;32;20081;-75
2022/01/02 01:56:39;;;;;;;26.98;11.60;;;;;;;4.48;100.00;99455.38;4355918;32;20093;-74
2022/01/02 01:59:07;;;;;;;25.92;12.37;;;;;;;4.28;100.00;99417.97;4356376;32;20073;-75
2022/01/02 02:01:33;;;;;;;25.95;12.10;;;;;;;4.53;100.00;99448.41;4343125;32;20054;-75
2022/01/02 02:04:00;;;;;;;22.70;10.52;;;;;;;4.27;100.00;99395.81;4354497;32;20044;-75
2022/01/02 02:06:27;;;;;;;21.17;11.20;;;;;;;4.29;100.00;99401.78;4343405;32;20789;-74
2022/01/02 02:08:56;;;;;;;22.58;11.15;;;;;;;4.36;100.00;99415.13;4356246;32;20039;-74
2022/01/02 02:11:24;;;;;;;25.52;11.27;;;;;;;4.33;100.00;99415.53;4362432;32;20054;-73
2022/01/02 02:13:52;;;;;;;25.27;11.73;;;;;;;4.32;100.00;99409.38;4369559;32;20040;-73
2022/01/02 02:16:19;;;;;;;21.85;10.95;;;;;;;4.57;100.00;99454.16;4370290;32;20048;-73
2022/01/02 02:18:45;;;;;;;27.42;14.45;;;;;;;4.55;100.00;99446.38;4371200;32;20447;-73
2022/01/02 02:21:12;;;;;;;27.35;13.82;;;;;;;4.57;100.00;99443.50;4357352;32;20057;-73
2022/01/02 02:23:39;;;;;;;36.55;14.20;;;;;;;4.36;100.00;99407.94;4370873;32;20032;-73
2022/01/02 02:26:12;;;;;;;27.48;13.50;;;;;;;4.58;100.00;99441.66;4346761;33;20343;-73
2022/01/02 02:28:38;;;;;;;31.08;13.88;;;;;;;4.56;100.00;99447.19;4354988;32;20070;-73
2022/01/02 02:31:06;;;;;;;33.15;13.75;;;;;;;4.62;100.00;99454.38;4355810;32;20073;-73
2022/01/02 02:33:32;;;;;;;27.95;13.77;;;;;;;4.58;100.00;99439.81;4356178;32;20069;-73
2022/01/02 02:35:59;;;;;;;41.92;13.90;;;;;;;4.63;100.00;99445.37;4359557;32;20430;-73
2022/01/02 02:38:26;;;;;;;42.38;14.52;;;;;;;4.46;100.00;99415.56;4368776;32;20430;-73
2022/01/02 02:40:53;;;;;;;42.95;14.87;;;;;;;4.63;100.00;99432.03;4370718;32;20050;-73
2022/01/02 02:54:27;;;;;;;59.25;17.15;;;;;;;4.59;100.00;99406.78;4370568;32;20051;-72
2022/01/02 02:56:59;;;;;;;58.72;13.70;;;;;;;4.57;100.00;99413.34;4371004;32;20035;-73
2022/01/02 02:59:32;;;;;;;105.10;17.55;;;;;;;4.72;100.00;99414.81;4368134;32;20110;-73
2022/01/02 03:01:59;;;;;;;63.47;16.33;;;;;;;4.39;100.00;99360.56;4368536;32;20112;-73
2022/01/02 03:04:26;;;;;;;108.30;18.17;;;;;;;4.62;100.00;99401.03;4355051;32;20115;-73
2022/01/02 03:06:54;;;;;;;130.70;16.27;;;;;;;4.60;100.00;99379.09;4355867;32;20358;-73
2022/01/02 03:09:42;;;;;;;94.65;16.55;;;;;;;4.32;100.00;99339.22;4354901;32;20391;-73
2022/01/02 03:12:15;;;;;;;82.47;15.93;;;;;;;4.63;100.00;99389.34;4355973;32;20062;-74
2022/01/02 03:14:42;;;;;;;121.40;16.58;;;;;;;4.54;100.00;99361.22;4355064;32;20043;-73
2022/01/02 03:17:09;;;;;;;166.70;17.17;;;;;;;4.65;100.00;99365.16;4353610;32;20073;-74
2022/01/02 03:19:36;;;;;;;117.35;17.52;;;;;;;4.66;100.00;99372.94;4355090;32;20047;-73
2022/01/02 03:22:03;;;;;;;134.20;16.00;;;;;;;4.71;100.00;99362.50;4355708;32;20113;-75
2022/01/02 03:24:29;;;;;;;171.98;18.58;;;;;;;4.73;100.00;99368.44;4355384;32;20031;-74
2022/01/02 03:26:56;;;;;;;105.40;17.17;;;;;;;4.73;100.00;99371.09;4354573;32;20135;-73
2022/01/02 03:29:23;;;;;;;186.43;19.92;;;;;;;4.37;100.00;99320.78;4366672;32;20047;-74
2022/01/02 03:31:50;;;;;;;160.55;17.55;;;;;;;4.42;100.00;99322.84;4368687;32;20047;-73
2022/01/02 03:34:17;;;;;;;143.13;17.27;;;;;;;4.48;100.00;99328.22;4354693;32;20044;-74
2022/01/02 03:36:44;;;;;;;174.15;18.55;;;;;;;4.72;100.00;99365.97;4353827;33;20031;-73
2022/01/02 03:39:10;;;;;;;189.50;19.40;;;;;;;4.83;100.00;99364.56;4354617;33;20150;-74
2022/01/02 03:41:37;;;;;;;131.73;17.25;;;;;;;4.52;100.00;99312.63;4353838;33;20411;-73
2022/01/02 03:44:04;;;;;;;166.98;18.17;;;;;;;4.50;100.00;99319.97;4354889;32;20055;-74
2022/01/02 03:46:30;;;;;;;139.45;18.40;;;;;;;4.71;100.00;99340.34;4355049;33;20054;-73
2022/01/02 03:48:57;;;;;;;161.48;18.25;;;;;;;4.31;100.00;99268.28;4354339;33;20043;-73
2022/01/02 03:51:23;;;;;;;129.65;16.02;;;;;;;4.49;100.00;99289.03;4363520;32;20419;-74
2022/01/02 03:53:50;;;;;;;129.85;15.60;;;;;;;4.92;100.00;99333.97;4362513;32;20062;-74
2022/01/02 03:56:17;;;;;;;61.45;15.43;;;;;;;4.69;100.00;99307.69;4355434;33;20082;-73
2022/01/02 03:58:43;;;;;;;133.18;19.05;;;;;;;4.62;100.00;99291.69;4354950;33;20150;-73
2022/01/02 04:01:10;;;;;;;139.00;17.83;;;;;;;4.59;100.00;99275.28;4355120;33;20036;-74
2022/01/02 04:03:38;;;;;;;162.95;17.50;;;;;;;4.82;100.00;99306.87;4365081;32;20069;-73
2022/01/02 04:06:04;;;;;;;166.45;17.35;;;;;;;4.85;100.00;99311.78;4354368;32;20077;-74
2022/01/02 04:08:31;;;;;;;148.70;16.67;;;;;;;4.94;100.00;99305.22;4368773;32;20047;-73
2022/01/02 04:10:58;;;;;;;111.78;17.00;;;;;;;4.72;100.00;99265.44;4370111;32;20105;-73
2022/01/02 04:13:24;;;;;;;173.27;17.58;;;;;;;4.96;100.00;99302.34;4356226;32;20036;-73
2022/01/02 04:16:12;;;;;;;161.02;18.27;;;;;;;4.97;100.00;99280.81;4370126;32;20040;-73
2022/01/02 04:18:39;;;;;;;132.20;18.30;;;;;;;4.91;100.00;99284.28;4368603;32;20077;-73
2022/01/02 04:21:06;;;;;;;161.23;18.95;;;;;;;5.00;100.00;99288.41;4370063;32;20039;-73
2022/01/02 04:23:32;;;;;;;145.82;18.12;;;;;;;4.96;100.00;99281.81;4368379;32;20077;-73
2022/01/02 04:25:59;;;;;;;91.85;16.05;;;;;;;5.02;100.00;99264.97;4362827;32;20062;-74
2022/01/02 04:28:26;;;;;;;119.30;17.55;;;;;;;4.82;100.00;99225.00;4352839;33;20058;-74
2022/01/02 04:30:52;;;;;;;279.40;22.52;;;;;;;4.79;100.00;99209.41;4354795;32;20040;-73
2022/01/02 04:33:19;;;;;;;85.00;15.43;;;;;;;4.89;100.00;99212.47;4353396;33;20048;-73
2022/01/02 04:35:46;;;;;;;143.57;19.10;;;;;;;4.90;100.00;99207.97;4364263;32;20384;-72
2022/01/02 04:38:14;;;;;;;183.50;23.83;;;;;;;4.78;100.00;99190.94;4369469;32;20043;-73
2022/01/02 04:40:41;;;;;;;160.93;17.60;;;;;;;5.13;100.00;99228.03;4368176;32;20039;-73
2022/01/02 04:43:09;;;;;;;182.12;20.55;;;;;;;5.18;100.00;99228.22;4369763;32;20051;-74
2022/01/02 04:45:35;;;;;;;137.60;20.70;;;;;;;5.20;100.00;99223.47;4369606;32;20337;-73
2022/01/02 04:48:02;;;;;;;237.48;20.67;;;;;;;5.26;100.00;99223.47;4359295;32;20388;-73
2022/01/02 04:50:29;;;;;;;273.08;20.23;;;;;;;5.34;100.00;99209.06;4371593;32;20061;-74
2022/01/02 04:53:03;;;;;;;283.77;22.17;;;;;;;5.38;100.00;99210.28;4372374;32;20055;-74
2022/01/02 04:55:30;;;;;;;241.75;19.85;;;;;;;5.34;100.00;99198.38;4372191;32;20069;-73
2022/01/02 04:57:57;;;;;;;204.45;19.58;;;;;;;5.41;100.00;99195.69;4372378;32;20042;-73
2022/01/02 05:00:24;;;;;;;186.98;19.85;;;;;;;5.32;100.00;99171.06;4370683;32;20116;-74
2022/01/02 05:02:52;;;;;;;230.75;21.60;;;;;;;5.40;100.00;99176.16;4357400;32;20047;-74
2022/01/02 05:05:18;;;;;;;275.10;21.23;;;;;;;5.45;100.00;99173.66;4371210;32;20109;-73
2022/01/02 05:07:45;;;;;;;349.90;24.02;;;;;;;5.58;100.00;99177.31;4358967;32;20380;-73
2022/01/02 05:10:12;;;;;;;298.95;21.85;;;;;;;5.29;100.00;99136.78;4372410;32;20047;-73
2022/01/02 05:12:39;;;;;;;216.77;19.37;;;;;;;5.60;100.00;99175.25;4371367;32;20474;-74
2022/01/02 05:15:06;;;;;;;250.35;23.12;;;;;;;5.62;100.00;99175.88;4369923;32;20422;-74
2022/01/02 05:17:33;;;;;;;288.23;22.08;;;;;;;5.38;100.00;99118.69;4358113;32;20051;-73
2022/01/02 05:20:01;;;;;;;206.27;21.10;;;;;;;5.37;100.00;99117.84;4369880;32;20097;-74
2022/01/02 05:22:29;;;;;;;201.35;19.20;;;;;;;5.73;100.00;99174.38;4371849;32;20083;-73
2022/01/02 05:24:57;;;;;;;183.00;18.95;;;;;;;5.58;100.00;99145.25;4371949;32;20044;-75
2022/01/02 05:27:24;;;;;;;144.32;20.60;;;;;;;5.55;100.00;99124.31;4368754;32;20467;-73
2022/01/02 05:29:50;;;;;;;232.80;19.87;;;;;;;5.59;100.00;99114.84;4371781;32;20083;-74
2022/01/02 05:32:17;;;;;;;223.82;22.20;;;;;;;5.82;100.00;99131.16;4372366;32;20377;-74
2022/01/02 05:34:44;;;;;;;165.30;20.05;;;;;;;5.86;100.00;99125.37;4370278;32;20089;-74
2022/01/02 05:37:10;;;;;;;90.00;17.33;;;;;;;5.99;100.00;99146.69;4371146;32;20057;-75
2022/01/02 05:39:37;;;;;;;158.25;19.92;;;;;;;5.90;100.00;99122.03;4370497;32;20961;-75
2022/01/02 05:42:04;;;;;;;194.13;18.37;;;;;;;6.02;100.00;99138.22;4356698;32;20073;-75
2022/01/02 05:44:31;;;;;;;160.88;18.70;;;;;;;5.64;100.00;99058.94;4370833;32;20475;-75
2022/01/02 05:46:58;;;;;;;175.35;19.85;;;;;;;5.77;100.00;99074.84;4371989;32;20069;-75
2022/01/02 05:49:24;;;;;;;207.55;19.73;;;;;;;6.11;100.00;99123.56;4368567;32;20036;-73
2022/01/02 05:51:58;;;;;;;178.25;19.73;;;;;;;6.11;100.00;99118.22;4346402;32;20341;-73
2022/01/02 05:54:24;;;;;;;171.05;18.75;;;;;;;5.95;100.00;99070.59;4357582;32;20044;-73
2022/01/02 05:56:51;;;;;;;142.43;17.70;;;;;;;6.27;100.00;99106.16;4357260;32;20396;-75
2022/01/02 05:59:18;;;;;;;128.68;16.83;;;;;;;6.12;100.00;99082.41;4355207;32;20372;-75
2022/01/02 06:01:44;;;;;;;97.88;16.48;;;;;;;6.16;100.00;99059.56;4359228;32;20219;-75
2022/01/02 06:04:11;;;;;;;160.63;19.40;;;;;;;6.21;100.00;99047.38;4365857;32;20077;-75
2022/01/02 06:06:39;;;;;;;113.07;17.50;;;;;;;6.50;100.00;99094.81;4363772;32;20108;-76
2022/01/02 06:09:06;;;;;;;110.35;18.30;;;;;;;6.54;100.00;99090.66;4356253;32;20061;-73
2022/01/02 06:11:33;;;;;;;89.75;17.77;;;;;;;6.38;100.00;99056.44;4370570;32;20098;-73
2022/01/02 06:14:00;;;;;;;91.18;17.77;;;;;;;6.67;100.00;99083.50;4370101;32;20047;-74
2022/01/02 06:16:32;;;;;;;80.20;16.98;;;;;;;6.61;100.00;99074.53;4358357;32;20053;-74
2022/01/02 06:19:00;;;;;;;149.57;19.10;;;;;;;6.46;100.00;99034.78;4369638;32;20057;-74
2022/01/02 06:21:27;;;;;;;115.47;20.23;;;;;;;6.52;100.00;99033.87;4367612;32;20090;-73
2022/01/02 06:23:54;;;;;;;83.28;18.40;;;;;;;6.59;100.00;99043.69;4370590;32;21041;-73
2022/01/02 06:26:21;;;;;;;61.40;16.50;;;;;;;6.70;100.00;99040.25;4370671;32;20105;-75
2022/01/02 06:28:48;;;;;;;48.95;16.48;;;;;;;6.76;100.00;99038.56;4370692;32;20057;-74
2022/01/02 06:31:14;;;;;;;57.72;17.58;;;;;;;6.52;100.00;99000.97;4369986;32;20475;-75
2022/01/02 06:33:41;;;;;;;66.80;17.77;;;;;;;6.59;100.00;99001.72;4355920;32;20450;-75
2022/01/02 06:36:08;;;;;;;50.75;15.50;;;;;;;6.59;100.00;98991.00;4370648;32;20055;-75
2022/01/02 06:38:35;;;;;;;48.63;16.92;;;;;;;6.80;100.00;99019.16;4371188;32;20039;-74
2022/01/02 06:41:02;;;;;;;53.83;18.05;;;;;;;6.75;100.00;99016.34;4351452;32;20036;-74
2022/01/02 06:43:32;;;;;;;53.17;16.50;;;;;;;6.84;100.00;99028.34;4346794;32;20093;-74
2022/01/02 06:45:58;;;;;;;50.03;17.52;;;;;;;6.67;100.00;98993.38;4355368;32;20337;-73
2022/01/02 06:48:25;;;;;;;50.30;15.80;;;;;;;6.75;100.00;98994.09;4355967;32;20414;-74
2022/01/02 06:50:52;;;;;;;52.10;18.23;;;;;;;6.95;100.00;99020.63;4360437;32;20418;-74
2022/01/02 06:53:18;;;;;;;44.08;13.20;;;;;;;6.75;100.00;98984.22;4370779;32;20048;-75
2022/01/02 06:55:45;;;;;;;46.20;16.65;;;;;;;6.78;100.00;98989.13;4368668;32;20030;-74
2022/01/02 06:58:13;;;;;;;45.42;16.15;;;;;;;6.97;100.00;99029.22;4370585;32;20081;-74
2022/01/02 07:00:41;;;;;;;43.38;16.50;;;;;;;6.80;100.00;98991.59;4370406;32;20051;-74
2022/01/02 07:03:08;;;;;;;47.15;17.95;;;;;;;6.81;100.00;98991.38;4355962;32;20043;-75
2022/01/02 07:05:36;;;;;;;35.83;15.00;;;;;;;6.87;100.00;99001.13;4367432;32;20055;-75
2022/01/02 07:08:02;;;;;;;41.75;16.55;;;;;;;6.96;100.00;99016.91;4370381;32;20342;-74
2022/01/02 07:10:29;;;;;;;41.10;16.27;;;;;;;6.99;100.00;99011.91;4370316;32;20031;-74
2022/01/02 07:12:56;;;;;;;50.05;17.52;;;;;;;6.76;100.00;98964.44;4356975;32;20070;-75
2022/01/02 07:15:23;;;;;;;36.72;16.62;;;;;;;6.93;100.00;98995.94;4364456;32;20051;-74
2022/01/02 07:17:49;;;;;;;45.45;16.50;;;;;;;6.66;100.00;98943.56;4367654;32;20426;-74
2022/01/02 07:20:16;;;;;;;44.10;20.05;;;;;;;6.97;100.00;98981.03;4367095;32;20060;-74
2022/01/02 07:22:42;;;;;;;46.37;17.23;;;;;;;6.93;100.00;98985.25;4369079;32;20216;-75
2022/01/02 07:25:10;;;;;;;39.70;16.50;;;;;;;6.98;100.00;98978.13;4369460;32;20092;-74
2022/01/02 07:27:37;;;;;;;41.63;18.12;;;;;;;6.96;100.00;98984.78;4369617;32;20055;-75
2022/01/02 07:30:05;;;;;;;43.70;16.98;;;;;;;6.78;100.00;98946.31;4368924;32;20061;-74
2022/01/02 07:32:32;;;;;;;43.72;17.27;;;;;;;6.88;100.00;98962.63;4370571;32;20414;-75
2022/01/02 07:34:58;;;;;;;40.72;16.60;;;;;;;6.71;100.00;98934.87;4370776;32;20187;-74
2022/01/02 07:37:25;;;;;;;48.15;19.02;;;;;;;6.45;100.00;98898.59;4370593;32;20362;-74
2022/01/02 07:39:51;;;;;;;51.03;18.75;;;;;;;6.63;100.00;98917.28;4370021;32;20044;-74
2022/01/02 07:42:18;;;;;;;39.53;16.20;;;;;;;6.75;100.00;98928.03;4368803;32;20377;-74
2022/01/02 07:44:45;;;;;;;44.47;16.87;;;;;;;6.75;100.00;98940.56;4370089;32;20311;-73
2022/01/02 07:47:12;;;;;;;39.33;16.87;;;;;;;6.97;100.00;98964.97;4370393;32;20069;-73
2022/01/02 07:49:38;;;;;;;39.45;15.65;;;;;;;6.74;100.00;98931.75;4370272;32;20372;-73
2022/01/02 07:52:04;;;;;;;49.42;19.00;;;;;;;6.71;100.00;98924.97;4369224;32;20098;-74
2022/01/02 07:54:31;;;;;;;38.90;17.27;;;;;;;6.90;100.00;98943.66;4369778;32;20072;-73
2022/01/02 07:56:58;;;;;;;45.42;17.08;;;;;;;7.02;100.00;98952.56;4368926;32;20048;-73
2022/01/02 07:59:24;;;;;;;39.08;15.95;;;;;;;6.77;100.00;98912.56;4368242;32;20077;-73
2022/01/02 08:01:51;;;;;;;38.20;15.45;;;;;;;7.04;100.00;98936.28;4367891;32;20035;-74
2022/01/02 08:04:19;;;;;;;35.78;16.48;;;;;;;6.88;100.00;98898.41;4351421;32;20368;-74
2022/01/02 08:06:46;;;;;;;36.38;14.68;;;;;;;6.89;100.00;98889.31;4364422;32;20040;-73
2022/01/02 08:09:12;;;;;;;34.15;16.37;;;;;;;7.04;100.00;98909.50;4360608;32;20040;-73
2022/01/02 08:11:39;;;;;;;40.63;16.65;;;;;;;7.10;100.00;98905.91;4360535;32;20069;-73
2022/01/02 08:14:06;;;;;;;44.08;16.85;;;;;;;7.10;100.00;98887.16;4359031;32;20065;-74
2022/01/02 08:16:34;;;;;;;42.88;16.23;;;;;;;6.91;100.00;98849.75;4358637;32;20070;-73
2022/01/02 08:19:01;;;;;;;35.60;16.48;;;;;;;7.17;100.00;98890.53;4359594;32;20310;-73
2022/01/02 08:21:27;;;;;;;34.30;15.27;;;;;;;6.94;100.00;98847.66;4362130;32;20048;-73
2022/01/02 08:23:54;;;;;;;38.97;16.60;;;;;;;6.98;100.00;98840.81;4365902;32;20073;-73
2022/01/02 08:26:23;;;;;;;39.72;14.93;;;;;;;7.23;100.00;98873.56;4365900;32;20100;-73
2022/01/02 08:28:51;;;;;;;42.38;15.55;;;;;;;7.06;100.00;98837.78;4369444;32;20199;-73
2022/01/02 08:31:17;;;;;;;31.42;15.23;;;;;;;7.41;100.00;98893.25;4365862;32;20054;-73
2022/01/02 08:33:44;;;;;;;36.25;15.43;;;;;;;7.23;100.00;98852.13;4365070;32;20063;-73
2022/01/02 08:36:11;;;;;;;34.88;14.07;;;;;;;7.36;100.00;98866.34;4363728;32;20032;-74
2022/01/02 08:38:37;;;;;;;30.15;13.57;;;;;;;7.40;100.00;98870.16;4362573;32;20171;-74
2022/01/02 08:41:04;;;;;;;29.52;13.65;;;;;;;7.49;100.00;98882.19;4362603;32;20051;-74
2022/01/02 08:43:31;;;;;;;30.55;12.68;;;;;;;7.44;100.00;98868.66;4362883;32;20410;-73
2022/01/02 08:45:57;;;;;;;27.45;13.68;;;;;;;7.44;100.00;98847.25;4362792;32;20394;-74
2022/01/02 08:48:24;;;;;;;21.15;10.80;;;;;;;7.63;100.00;98878.22;4362153;32;20074;-73
2022/01/02 08:50:51;;;;;;;23.58;11.30;;;;;;;7.61;100.00;98868.75;4361596;32;20083;-74
2022/01/02 08:53:18;;;;;;;30.83;12.48;;;;;;;7.48;100.00;98837.66;4363951;32;20088;-74
2022/01/02 08:55:45;;;;;;;33.55;13.27;;;;;;;7.70;100.00;98883.44;4364204;32;20051;-73
2022/01/02 08:58:11;;;;;;;28.75;11.93;;;;;;;7.71;100.00;98885.09;4366447;32;20039;-72
2022/01/02 09:00:37;;;;;;;24.63;12.75;;;;;;;7.64;100.00;98884.38;4362254;32;20028;-73
2022/01/02 09:03:06;;;;;;;26.00;11.63;;;;;;;7.46;100.00;98851.28;4361800;32;20059;-74
2022/01/02 09:05:33;;;;;;;29.70;13.70;;;;;;;7.69;100.00;98883.69;4361774;32;20063;-74
2022/01/02 09:07:59;;;;;;;29.67;12.20;;;;;;;7.48;100.00;98848.38;4364239;32;20074;-73
2022/01/02 09:10:26;;;;;;;25.73;12.48;;;;;;;7.57;100.00;98847.00;4363174;32;20434;-73
2022/01/02 09:12:53;;;;;;;29.02;12.32;;;;;;;7.47;100.00;98857.50;4361870;32;20380;-74
2022/01/02 09:15:19;;;;;;;23.10;12.37;;;;;;;7.69;100.00;98876.47;4363413;32;20069;-75
2022/01/02 09:17:46;;;;;;;28.95;12.68;;;;;;;7.72;100.00;98891.25;4363717;32;20078;-74
2022/01/02 09:20:14;;;;;;;30.75;12.25;;;;;;;7.77;100.00;98888.69;4361841;32;20032;-73
2022/01/02 09:22:41;;;;;;;26.10;12.23;;;;;;;7.63;100.00;98867.50;4357112;32;20435;-74
2022/01/02 09:25:09;;;;;;;23.35;11.05;;;;;;;7.76;100.00;98871.78;4348534;32;20394;-75
2022/01/02 09:27:36;;;;;;;26.83;11.90;;;;;;;7.81;100.00;98863.84;4357371;32;20078;-75
2022/01/02 09:30:04;;;;;;;22.65;11.15;;;;;;;7.78;100.00;98863.50;4356605;32;20081;-75
2022/01/02 09:32:35;;;;;;;29.23;11.80;;;;;;;7.68;100.00;98831.94;4354747;32;20047;-75
2022/01/02 09:35:03;;;;;;;33.05;12.37;;;;;;;7.85;100.00;98852.66;4361813;32;20335;-75
2022/01/02 09:37:29;;;;;;;30.45;12.82;;;;;;;7.64;100.00;98817.38;4370317;32;20102;-74
2022/01/02 09:39:56;;;;;;;26.02;11.02;;;;;;;7.62;100.00;98809.56;4371844;32;20058;-75
2022/01/02 09:42:23;;;;;;;24.33;11.73;;;;;;;7.94;100.00;98852.06;4371144;32;20031;-74
2022/01/02 09:44:49;;;;;;;27.48;11.95;;;;;;;7.70;100.00;98807.59;4370082;32;20069;-75
2022/01/02 09:47:21;;;;;;;27.80;11.20;;;;;;;7.94;100.00;98843.19;4352925;32;20483;-75
2022/01/02 09:49:49;;;;;;;23.58;9.88;;;;;;;7.89;100.00;98849.28;4355975;32;20047;-75
2022/01/02 09:52:17;;;;;;;21.23;10.65;;;;;;;7.73;100.00;98812.50;4370417;32;20141;-75
2022/01/02 09:54:45;;;;;;;23.08;9.50;;;;;;;7.67;100.00;98829.50;4368921;32;20073;-74
2022/01/02 09:57:12;;;;;;;21.52;8.32;;;;;;;7.74;100.00;98814.13;4365894;32;20159;-75
2022/01/02 09:59:39;;;;;;;21.08;9.95;;;;;;;7.58;100.00;98816.47;4368530;32;20941;-74
2022/01/02 10:02:07;;;;;;;21.42;9.23;;;;;;;7.85;100.00;98848.13;4357558;32;20044;-75
2022/01/02 10:04:40;;;;;;;20.80;8.35;;;;;;;7.54;100.00;98807.25;4368879;32;20039;-75
2022/01/02 10:07:36;;;;;;;28.40;13.07;;;;;;;7.66;100.00;98801.06;4358137;32;20389;-74
2022/01/02 10:10:12;;;;;;;13.55;7.57;;;;;;;7.30;100.00;98752.09;4373977;32;20053;-74
2022/01/02 10:12:39;;;;;;;17.45;8.15;;;;;;;7.51;100.00;98783.63;4385925;32;20047;-75
2022/01/02 10:15:06;;;;;;;17.33;7.62;;;;;;;7.81;100.00;98822.84;4383427;32;20066;-75
2022/01/02 10:17:56;;;;;;;18.85;9.25;;;;;;;7.82;100.00;98816.44;4385835;32;20077;-74
2022/01/02 10:20:30;;;;;;;23.55;9.70;;;;;;;7.89;100.00;98803.69;4385847;32;20053;-74
2022/01/02 10:23:00;;;;;;;17.62;7.80;;;;;;;7.63;100.00;98749.59;4383381;32;20423;-74
2022/01/02 10:25:57;;;;;;;18.08;7.95;;;;;;;7.91;100.00;98795.41;4385579;32;20086;-74
2022/01/02 10:28:27;;;;;;;19.27;9.52;;;;;;;7.90;100.00;98799.16;4384877;32;20076;-74
2022/01/02 10:31:18;;;;;;;15.18;7.97;;;;;;;7.86;100.00;98763.16;4382942;32;20026;-75
2022/01/02 10:33:51;;;;;;;20.90;8.85;;;;;;;7.94;100.00;98779.66;4382317;32;20368;-74
2022/01/02 10:36:27;;;;;;;27.08;7.25;;;;;;;7.82;100.00;98734.16;4383992;32;20073;-74
2022/01/02 10:39:08;;;;;;;19.50;8.68;;;;;;;7.96;100.00;98753.44;4385850;32;20474;-74
2022/01/02 10:41:38;;;;;;;;;;;;;;;7.96;100.00;98758.81;4385680;32;20341;-75
2022/01/02 10:44:17;;;;;;;18.08;8.35;;;;;;;8.03;100.00;98744.44;4378539;32;19952;-75
2022/01/02 10:47:03;;;;;;;19.95;8.63;;;;;;;8.10;100.00;98747.78;4370971;32;20065;-74
2022/01/02 10:49:49;;;;;;;19.67;8.07;;;;;;;8.03;100.00;98741.78;4369686;32;20035;-75
2022/01/02 10:52:25;;;;;;;13.13;7.03;;;;;;;7.80;100.00;98692.53;4372227;32;20069;-75
2022/01/02 10:54:51;;;;;;;19.37;7.40;;;;;;;7.64;100.00;98692.28;4370466;32;20570;-75
2022/01/02 10:57:19;;;;;;;20.52;8.77;;;;;;;7.81;100.00;98712.94;4385347;32;20055;-75
2022/01/02 10:59:46;;;;;;;18.77;7.68;;;;;;;7.97;100.00;98717.53;4385102;32;20040;-75
2022/01/02 11:02:15;;;;;;;11.57;5.95;;;;;;;7.99;100.00;98710.06;4385603;32;20030;-75
2022/01/02 11:07:36;;;;;;;16.27;7.35;;;;;;;8.04;100.00;98705.84;4383812;32;20065;-75
2022/01/02 11:10:04;;;;;;;19.20;7.60;;;;;;;7.88;100.00;98660.00;4385438;32;20410;-75
2022/01/02 11:12:32;;;;;;;12.13;6.75;;;;;;;7.91;100.00;98664.88;4370205;32;20115;-75
2022/01/02 11:15:00;;;;;;;21.73;8.35;;;;;;;7.79;100.00;98626.59;4382606;32;20061;-76
2022/01/02 11:17:27;;;;;;;17.83;8.02;;;;;;;8.24;100.00;98674.03;4385279;32;20069;-75
2022/01/02 11:19:53;;;;;;;21.60;8.90;;;;;;;8.35;100.00;98681.16;4371753;32;20333;-75
2022/01/02 11:22:34;;;;;;;22.10;7.40;;;;;;;8.02;100.00;98632.88;4385850;32;20383;-75
2022/01/02 11:25:13;;;;;;;19.20;7.85;;;;;;;8.02;100.00;98640.94;4383526;32;20164;-77
2022/01/02 11:28:02;;;;;;;16.95;7.07;;;;;;;8.34;100.00;98679.56;4369996;32;20072;-75
2022/01/02 11:30:29;;;;;;;17.92;7.97;;;;;;;8.33;100.00;98666.41;4368185;32;20124;-76
2022/01/02 11:33:09;;;;;;;20.85;7.80;;;;;;;8.42;100.00;98664.91;4376934;32;20065;-76
2022/01/02 11:35:39;;;;;;;17.58;8.02;;;;;;;8.43;100.00;98661.22;4370119;32;20081;-75
2022/01/02 11:38:06;;;;;;;17.48;7.55;;;;;;;8.42;100.00;98682.87;4377967;32;20371;-74
2022/01/02 11:40:58;;;;;;;15.15;6.93;;;;;;;8.44;100.00;98657.47;4382957;32;20073;-77